createdAt,value
2022-09-23T00:00:34.477Z,3.60
2022-09-23T00:03:01.623Z,3.88
2022-09-23T00:05:30.010Z,4.80
2022-09-23T00:07:57.681Z,5.05
2022-09-23T00:10:25.411Z,5.10
2022-09-23T00:12:52.635Z,4.00
2022-09-23T00:15:19.676Z,3.65
2022-09-23T00:17:47.594Z,3.97
2022-09-23T00:20:15.141Z,3.03
2022-09-23T00:22:42.327Z,2.88
2022-09-23T00:25:10.618Z,7.68
2022-09-23T00:27:38.148Z,3.15
2022-09-23T00:30:06.987Z,3.53
2022-09-23T00:32:34.550Z,5.00
2022-09-23T00:35:03.995Z,6.07
2022-09-23T00:37:31.640Z,6.60
2022-09-23T00:39:59.689Z,2.88
2022-09-23T00:42:26.797Z,4.78
2022-09-23T00:44:55.247Z,4.28
2022-09-23T00:47:24.486Z,4.07
2022-09-23T00:50:01.652Z,5.03
2022-09-23T00:52:29.278Z,3.22
2022-09-23T00:54:59.166Z,3.33
2022-09-23T00:57:27.322Z,3.40
2022-09-23T00:59:55.068Z,3.88
2022-09-23T01:02:22.437Z,4.57
2022-09-23T01:04:51.169Z,3.53
2022-09-23T01:07:18.597Z,6.53
2022-09-23T01:09:46.219Z,5.10
2022-09-23T01:12:31.553Z,5.60
2022-09-23T01:15:08.226Z,3.92
2022-09-23T01:17:40.290Z,4.75
2022-09-23T01:20:26.190Z,6.13
2022-09-23T01:22:59.635Z,8.18
2022-09-23T01:28:13.363Z,4.00
2022-09-23T01:30:47.589Z,5.18
2022-09-23T01:33:43.732Z,5.07
2022-09-23T01:36:15.515Z,4.07
2022-09-23T01:38:46.334Z,3.67
2022-09-23T01:41:17.956Z,3.58
2022-09-23T01:43:50.551Z,3.22
2022-09-23T01:46:20.014Z,4.17
2022-09-23T01:49:00.190Z,3.50
2022-09-23T01:51:34.016Z,5.90
2022-09-23T01:54:08.039Z,6.00
2022-09-23T01:56:38.669Z,4.93
2022-09-23T01:59:15.098Z,4.13
2022-09-23T02:01:55.411Z,5.03
2022-09-23T02:04:31.090Z,3.20
2022-09-23T02:07:00.979Z,9.73
2022-09-23T02:09:36.253Z,3.42
2022-09-23T02:12:06.003Z,4.38
2022-09-23T02:14:36.192Z,5.22
2022-09-23T02:17:08.567Z,4.13
2022-09-23T02:19:43.902Z,4.03
2022-09-23T02:22:26.647Z,7.18
2022-09-23T02:24:54.887Z,3.63
2022-09-23T02:27:29.545Z,3.92
2022-09-23T02:30:06.293Z,8.93
2022-09-23T02:32:42.969Z,3.83
2022-09-23T02:35:19.420Z,4.45
2022-09-23T02:37:49.327Z,4.28
2022-09-23T02:40:23.365Z,4.85
2022-09-23T02:42:57.776Z,4.00
2022-09-23T02:45:25.248Z,4.28
2022-09-23T02:47:53.983Z,5.43
2022-09-23T02:50:22.662Z,7.68
2022-09-23T02:52:50.001Z,4.30
2022-09-23T02:55:18.705Z,5.05
2022-09-23T02:57:47.081Z,4.25
2022-09-23T03:00:14.395Z,3.70
2022-09-23T03:02:51.029Z,6.40
2022-09-23T03:05:31.407Z,4.57
2022-09-23T03:08:06.484Z,3.90
2022-09-23T03:10:33.866Z,4.43
2022-09-23T03:13:04.584Z,4.75
2022-09-23T03:15:36.237Z,5.82
2022-09-23T03:18:31.581Z,4.07
2022-09-23T03:21:10.133Z,4.43
2022-09-23T03:23:38.728Z,3.55
2022-09-23T03:26:35.162Z,4.38
2022-09-23T03:29:09.114Z,5.38
2022-09-23T03:31:37.215Z,5.05
2022-09-23T03:34:05.824Z,4.22
2022-09-23T03:36:51.936Z,5.15
2022-09-23T03:39:32.128Z,4.32
2022-09-23T03:42:00.962Z,5.70
2022-09-23T03:44:29.746Z,3.22
2022-09-23T03:47:00.188Z,6.95
2022-09-23T03:49:29.165Z,3.80
2022-09-23T03:51:57.029Z,3.95
2022-09-23T03:54:24.023Z,5.15
2022-09-23T03:56:51.326Z,3.72
2022-09-23T03:59:18.399Z,7.22
2022-09-23T04:01:46.571Z,4.00
2022-09-23T04:04:14.072Z,3.83
2022-09-23T04:06:41.271Z,11.65
2022-09-23T04:09:08.530Z,4.78
2022-09-23T04:11:36.873Z,4.13
2022-09-23T04:14:04.455Z,4.13
2022-09-23T04:16:32.178Z,4.53
2022-09-23T04:18:59.515Z,3.72
2022-09-23T04:21:27.687Z,6.28
2022-09-23T04:23:54.874Z,6.15
2022-09-23T04:26:22.081Z,4.90
2022-09-23T04:28:49.107Z,5.18
2022-09-23T04:31:16.166Z,5.18
2022-09-23T04:33:43.281Z,9.35
2022-09-23T04:36:10.275Z,6.55
2022-09-23T04:38:37.325Z,5.55
2022-09-23T04:41:04.416Z,5.03
2022-09-23T04:43:31.460Z,6.13
2022-09-23T04:46:02.196Z,4.88
2022-09-23T04:48:29.719Z,6.05
2022-09-23T04:51:04.085Z,10.10
2022-09-23T04:53:31.527Z,8.73
2022-09-23T04:56:02.587Z,7.07
2022-09-23T04:58:30.011Z,9.10
2022-09-23T05:01:04.967Z,7.22
2022-09-23T05:03:35.585Z,9.25
2022-09-23T05:06:02.776Z,10.02
2022-09-23T05:08:30.118Z,8.85
2022-09-23T05:10:58.274Z,10.73
2022-09-23T05:13:26.015Z,9.82
2022-09-23T05:16:03.604Z,10.85
2022-09-23T05:18:37.306Z,10.35
2022-09-23T05:21:04.825Z,11.95
2022-09-23T05:23:31.912Z,10.10
2022-09-23T05:26:01.966Z,11.00
2022-09-23T05:28:31.216Z,16.17
2022-09-23T05:31:05.227Z,18.00
2022-09-23T05:33:33.080Z,13.07
2022-09-23T05:36:00.840Z,15.40
2022-09-23T05:38:31.496Z,11.23
2022-09-23T05:40:59.451Z,10.38
2022-09-23T05:43:27.307Z,13.23
2022-09-23T05:46:08.530Z,12.95
2022-09-23T05:48:36.963Z,13.13
2022-09-23T05:51:04.699Z,14.48
2022-09-23T05:53:31.926Z,12.93
2022-09-23T05:55:58.994Z,11.95
2022-09-23T05:58:27.732Z,12.70
2022-09-23T06:00:56.616Z,11.35
2022-09-23T06:03:24.856Z,12.88
2022-09-23T06:05:55.241Z,12.48
2022-09-23T06:08:22.776Z,14.32
2022-09-23T06:10:54.316Z,12.52
2022-09-23T06:13:22.183Z,16.05
2022-09-23T06:15:49.224Z,12.55
2022-09-23T06:18:17.194Z,15.85
2022-09-23T06:20:44.383Z,13.35
2022-09-23T06:23:12.174Z,19.02
2022-09-23T06:25:39.166Z,13.20
2022-09-23T06:28:12.061Z,14.20
2022-09-23T06:30:42.728Z,17.00
2022-09-23T06:33:10.238Z,20.65
2022-09-23T06:35:37.739Z,13.15
2022-09-23T06:38:05.240Z,13.60
2022-09-23T06:40:32.887Z,12.35
2022-09-23T06:43:00.679Z,21.38
2022-09-23T06:45:28.465Z,18.58
2022-09-23T06:47:56.307Z,16.83
2022-09-23T06:50:24.086Z,16.30
2022-09-23T06:52:56.008Z,15.63
2022-09-23T06:55:27.864Z,16.50
2022-09-23T06:57:55.579Z,15.48
2022-09-23T07:00:22.730Z,15.25
2022-09-23T07:02:50.008Z,14.02
2022-09-23T07:05:17.273Z,17.30
2022-09-23T07:07:45.161Z,19.52
2022-09-23T07:10:12.752Z,15.20
2022-09-23T07:12:40.270Z,21.73
2022-09-23T07:15:08.311Z,14.00
2022-09-23T07:17:35.559Z,18.20
2022-09-23T07:20:02.998Z,15.63
2022-09-23T07:22:30.231Z,15.70
2022-09-23T07:24:57.351Z,14.68
2022-09-23T07:27:25.288Z,14.98
2022-09-23T07:29:53.027Z,13.30
2022-09-23T07:32:21.877Z,14.27
2022-09-23T07:34:49.945Z,19.00
2022-09-23T07:37:18.163Z,16.58
2022-09-23T07:39:46.046Z,15.77
2022-09-23T07:42:14.213Z,13.27
2022-09-23T07:44:46.778Z,19.00
2022-09-23T07:47:14.243Z,14.43
2022-09-23T07:49:41.752Z,18.98
2022-09-23T07:52:09.351Z,16.05
2022-09-23T07:54:36.786Z,13.77
2022-09-23T07:57:03.830Z,14.57
2022-09-23T07:59:31.763Z,12.75
2022-09-23T08:01:59.085Z,12.73
2022-09-23T08:04:31.667Z,13.57
2022-09-23T08:07:00.651Z,13.57
2022-09-23T08:09:32.128Z,11.30
2022-09-23T08:11:59.321Z,10.40
2022-09-23T08:14:27.984Z,10.40
2022-09-23T08:16:55.178Z,10.40
2022-09-23T08:19:22.208Z,14.70
2022-09-23T08:21:52.014Z,10.65
2022-09-23T08:24:20.850Z,10.38
2022-09-23T08:26:48.702Z,9.85
2022-09-23T08:29:16.701Z,10.88
2022-09-23T08:31:44.123Z,12.80
2022-09-23T08:34:11.599Z,12.55
2022-09-23T08:36:38.955Z,11.35
2022-09-23T08:39:07.029Z,12.93
2022-09-23T08:41:52.879Z,11.75
2022-09-23T08:44:44.196Z,10.88
2022-09-23T08:47:14.896Z,11.00
2022-09-23T08:50:02.711Z,13.82
2022-09-23T08:52:34.392Z,14.85
2022-09-23T08:55:03.116Z,12.82
2022-09-23T08:58:02.342Z,10.77
2022-09-23T09:00:45.087Z,9.02
2022-09-23T09:03:20.719Z,15.88
2022-09-23T09:05:54.133Z,10.18
2022-09-23T09:08:48.228Z,11.00
2022-09-23T09:11:16.646Z,10.85
2022-09-23T09:13:54.576Z,10.65
2022-09-23T09:16:59.121Z,10.93
2022-09-23T09:19:57.070Z,9.70
2022-09-23T09:22:29.955Z,12.38
2022-09-23T09:25:00.007Z,8.85
2022-09-23T09:27:27.171Z,8.88
2022-09-23T09:29:55.487Z,9.95
2022-09-23T09:32:29.053Z,12.77
2022-09-23T09:34:58.983Z,7.50
2022-09-23T09:37:31.636Z,9.75
2022-09-23T09:39:59.183Z,10.98
2022-09-23T09:42:40.308Z,12.68
2022-09-23T09:45:11.020Z,8.65
2022-09-23T09:47:56.549Z,13.65
2022-09-23T09:50:41.739Z,11.55
2022-09-23T09:53:23.805Z,7.75
2022-09-23T09:56:10.395Z,10.68
2022-09-23T09:58:43.817Z,7.35
2022-09-23T10:01:20.235Z,9.40
2022-09-23T10:03:48.105Z,8.80
2022-09-23T10:06:18.333Z,12.40
2022-09-23T10:08:49.167Z,8.35
2022-09-23T10:11:17.651Z,8.60
2022-09-23T10:14:04.046Z,8.75
2022-09-23T10:16:32.294Z,9.88
2022-09-23T10:19:00.707Z,7.72
2022-09-23T10:21:34.517Z,8.45
2022-09-23T10:24:02.935Z,9.38
2022-09-23T10:26:32.954Z,14.23
2022-09-23T10:29:05.188Z,11.30
2022-09-23T10:31:33.711Z,8.82
2022-09-23T10:34:04.820Z,8.38
2022-09-23T10:36:32.740Z,11.82
2022-09-23T10:39:22.534Z,9.23
2022-09-23T10:42:15.626Z,7.20
2022-09-23T10:45:13.167Z,10.00
2022-09-23T10:47:49.736Z,9.10
2022-09-23T10:50:16.775Z,13.57
2022-09-23T10:52:56.977Z,11.00
2022-09-23T10:55:27.549Z,7.80
2022-09-23T10:58:05.831Z,9.55
2022-09-23T11:00:44.654Z,9.95
2022-09-23T11:03:31.756Z,6.88
2022-09-23T11:06:11.398Z,7.15
2022-09-23T11:08:43.150Z,7.53
2022-09-23T11:11:16.231Z,6.72
2022-09-23T11:13:43.524Z,7.90
2022-09-23T11:16:39.237Z,10.05
2022-09-23T11:19:12.576Z,9.48
2022-09-23T11:21:39.685Z,10.27
2022-09-23T11:24:07.095Z,7.10
2022-09-23T11:26:54.870Z,10.13
2022-09-23T11:29:42.784Z,7.72
2022-09-23T11:32:39.739Z,9.27
2022-09-23T11:35:27.156Z,7.32
2022-09-23T11:38:16.475Z,8.82
2022-09-23T11:40:46.541Z,4.65
2022-09-23T11:43:17.795Z,10.00
2022-09-23T11:45:52.988Z,7.00
2022-09-23T11:48:26.142Z,8.65
2022-09-23T11:53:25.199Z,6.35
2022-09-23T11:56:04.584Z,7.13
2022-09-23T11:58:51.418Z,9.15
2022-09-23T12:01:37.024Z,8.98
2022-09-23T12:04:19.336Z,6.57
2022-09-23T12:06:48.859Z,5.45
2022-09-23T12:09:30.976Z,8.77
2022-09-23T12:12:31.313Z,5.47
2022-09-23T12:15:07.466Z,7.90
2022-09-23T12:17:43.497Z,5.30
2022-09-23T12:20:22.645Z,7.22
2022-09-23T12:23:06.833Z,5.93
2022-09-23T12:25:33.825Z,4.95
2022-09-23T12:28:03.697Z,9.63
2022-09-23T12:30:32.679Z,7.15
2022-09-23T12:33:09.366Z,5.88
2022-09-23T12:35:41.436Z,11.07
2022-09-23T12:38:19.324Z,7.78
2022-09-23T12:40:46.721Z,5.45
2022-09-23T12:43:18.073Z,4.20
2022-09-23T12:45:45.923Z,7.97
2022-09-23T12:48:18.979Z,7.95
2022-09-23T12:50:58.938Z,5.30
2022-09-23T12:53:32.063Z,10.23
2022-09-23T12:58:44.657Z,4.75
2022-09-23T13:01:20.555Z,6.32
2022-09-23T13:04:10.490Z,8.95
2022-09-23T13:06:41.846Z,4.55
2022-09-23T13:09:10.975Z,5.22
2022-09-23T13:11:41.577Z,5.30
2022-09-23T13:14:08.739Z,6.35
2022-09-23T13:16:38.450Z,7.07
2022-09-23T13:19:07.228Z,5.28
2022-09-23T13:21:40.518Z,9.57
2022-09-23T13:24:13.479Z,11.63
2022-09-23T13:26:45.582Z,6.30
2022-09-23T13:29:39.445Z,8.40
2022-09-23T13:32:12.064Z,7.60
2022-09-23T13:34:41.226Z,4.82
2022-09-23T13:37:22.234Z,4.82
2022-09-23T13:39:49.848Z,8.45
2022-09-23T13:42:30.741Z,8.57
2022-09-23T13:44:59.316Z,6.78
2022-09-23T13:47:28.436Z,7.88
2022-09-23T13:49:55.881Z,5.93
2022-09-23T13:52:32.558Z,8.45
2022-09-23T13:54:59.659Z,5.10
2022-09-23T13:57:27.439Z,4.07
2022-09-23T13:59:54.512Z,7.90
2022-09-23T14:02:25.571Z,9.07
2022-09-23T14:04:52.932Z,5.68
2022-09-23T14:07:20.843Z,5.03
2022-09-23T14:09:50.469Z,4.78
2022-09-23T14:12:22.629Z,5.82
2022-09-23T14:14:51.670Z,9.25
2022-09-23T14:17:19.851Z,4.95
2022-09-23T14:19:47.698Z,7.53
2022-09-23T14:22:35.505Z,5.88
2022-09-23T14:25:03.925Z,6.18
2022-09-23T14:27:36.559Z,7.40
2022-09-23T14:30:04.429Z,10.25
2022-09-23T14:32:32.524Z,7.22
2022-09-23T14:35:03.792Z,5.90
2022-09-23T14:37:55.424Z,6.95
2022-09-23T14:40:22.613Z,6.72
2022-09-23T14:42:57.667Z,7.63
2022-09-23T14:45:26.542Z,7.60
2022-09-23T14:48:14.048Z,7.43
2022-09-23T14:50:49.970Z,12.13
2022-09-23T14:53:19.772Z,9.40
2022-09-23T14:55:52.674Z,9.95
2022-09-23T14:58:21.623Z,7.85
2022-09-23T15:00:59.488Z,8.82
2022-09-23T15:03:28.310Z,8.10
2022-09-23T15:06:08.373Z,11.13
2022-09-23T15:08:37.432Z,10.00
2022-09-23T15:11:08.025Z,9.80
2022-09-23T15:13:38.865Z,9.98
2022-09-23T15:16:06.573Z,12.70
2022-09-23T15:18:38.511Z,11.30
2022-09-23T15:21:10.562Z,7.25
2022-09-23T15:23:43.712Z,10.43
2022-09-23T15:28:37.891Z,12.45
2022-09-23T15:31:05.841Z,8.45
2022-09-23T15:33:34.298Z,7.93
2022-09-23T15:36:01.537Z,10.10
2022-09-23T15:38:28.606Z,10.82
2022-09-23T15:40:55.809Z,12.68
2022-09-23T15:43:24.458Z,9.60
2022-09-23T15:45:57.007Z,11.57
2022-09-23T15:48:27.038Z,12.52
2022-09-23T15:50:54.500Z,11.23
2022-09-23T15:53:27.168Z,13.25
2022-09-23T15:55:54.366Z,14.00
2022-09-23T15:58:21.993Z,17.60
2022-09-23T16:00:56.039Z,17.65
2022-09-23T16:03:28.789Z,14.85
2022-09-23T16:06:00.550Z,20.40
2022-09-23T16:08:27.971Z,10.77
2022-09-23T16:10:55.453Z,10.63
2022-09-23T16:13:22.996Z,13.15
2022-09-23T16:15:50.288Z,11.48
2022-09-23T16:18:18.025Z,11.63
2022-09-23T16:20:46.436Z,11.73
2022-09-23T16:23:37.523Z,14.50
2022-09-23T16:26:13.787Z,14.02
2022-09-23T16:28:40.787Z,15.57
2022-09-23T16:31:07.862Z,11.63
2022-09-23T16:33:34.944Z,12.77
2022-09-23T16:36:02.563Z,12.60
2022-09-23T16:38:29.969Z,11.73
2022-09-23T16:41:00.976Z,11.30
2022-09-23T16:43:31.691Z,11.30
2022-09-23T16:45:59.178Z,11.60
2022-09-23T16:48:26.595Z,19.02
2022-09-23T16:50:53.924Z,16.98
2022-09-23T16:53:21.156Z,16.50
2022-09-23T16:55:48.371Z,17.13
2022-09-23T16:58:15.486Z,20.05
2022-09-23T17:01:01.420Z,22.63
2022-09-23T17:03:40.986Z,26.77
2022-09-23T17:06:14.728Z,27.15
2022-09-23T17:08:42.723Z,25.10
2022-09-23T17:11:11.001Z,22.67
2022-09-23T17:13:40.962Z,25.73
2022-09-23T17:16:08.261Z,22.23
2022-09-23T17:18:35.495Z,16.88
2022-09-23T17:21:03.760Z,15.45
2022-09-23T17:23:31.687Z,22.13
2022-09-23T17:25:59.873Z,22.27
2022-09-23T17:28:27.517Z,17.40
2022-09-23T17:30:58.430Z,19.60
2022-09-23T17:33:30.317Z,15.98
2022-09-23T17:35:57.750Z,18.08
2022-09-23T17:38:28.893Z,15.88
2022-09-23T17:40:59.027Z,19.35
2022-09-23T17:43:26.317Z,22.35
2022-09-23T17:45:54.451Z,21.70
2022-09-23T17:48:22.349Z,27.77
2022-09-23T17:50:55.736Z,20.48
2022-09-23T17:53:23.300Z,27.17
2022-09-23T17:56:00.684Z,26.13
2022-09-23T17:58:29.588Z,20.83
2022-09-23T18:00:57.517Z,23.42
2022-09-23T18:03:28.910Z,25.92
2022-09-23T18:06:05.646Z,18.27
2022-09-23T18:08:32.784Z,24.52
2022-09-23T18:10:59.820Z,24.33
2022-09-23T18:13:26.829Z,18.65
2022-09-23T18:15:54.436Z,21.45
2022-09-23T18:18:21.695Z,17.05
2022-09-23T18:20:48.787Z,16.67
2022-09-23T18:23:15.775Z,17.67
2022-09-23T18:25:42.815Z,22.88
2022-09-23T18:28:09.809Z,23.08
2022-09-23T18:30:36.833Z,27.17
2022-09-23T18:33:03.862Z,19.52
2022-09-23T18:35:31.066Z,27.25
2022-09-23T18:37:58.211Z,25.40
2022-09-23T18:40:25.626Z,21.88
2022-09-23T18:42:52.860Z,21.48
2022-09-23T18:45:20.179Z,24.02
2022-09-23T18:48:06.780Z,21.40
2022-09-23T18:50:40.489Z,28.83
2022-09-23T18:53:08.151Z,22.00
2022-09-23T18:55:36.130Z,27.27
2022-09-23T18:58:03.490Z,26.92
2022-09-23T19:00:30.635Z,24.48
2022-09-23T19:02:57.753Z,24.73
2022-09-23T19:05:24.771Z,19.83
2022-09-23T19:07:52.288Z,23.13
2022-09-23T19:10:19.732Z,24.20
2022-09-23T19:12:46.898Z,20.83
2022-09-23T19:15:14.559Z,26.27
2022-09-23T19:17:41.634Z,22.67
2022-09-23T19:20:10.093Z,21.27
2022-09-23T19:22:37.122Z,19.45
2022-09-23T19:25:04.266Z,26.88
2022-09-23T19:27:31.350Z,23.35
2022-09-23T19:29:58.516Z,27.13
2022-09-23T19:32:26.668Z,22.48
2022-09-23T19:34:53.678Z,20.40
2022-09-23T19:37:21.180Z,22.42
2022-09-23T19:39:50.060Z,23.92
2022-09-23T19:42:17.091Z,25.02
2022-09-23T19:44:44.147Z,25.02
2022-09-23T19:47:15.708Z,21.08
2022-09-23T19:49:43.035Z,22.13
2022-09-23T19:52:10.203Z,23.92
2022-09-23T19:54:37.659Z,26.10
2022-09-23T19:57:04.688Z,25.35
2022-09-23T19:59:32.651Z,20.70
2022-09-23T20:01:59.920Z,23.02
2022-09-23T20:04:27.243Z,23.58
2022-09-23T20:06:54.546Z,21.75
2022-09-23T20:09:21.652Z,27.58
2022-09-23T20:11:48.739Z,22.85
2022-09-23T20:14:17.730Z,23.75
2022-09-23T20:16:45.515Z,28.35
2022-09-23T20:19:13.188Z,24.38
2022-09-23T20:21:40.633Z,22.15
2022-09-23T20:24:09.802Z,28.77
2022-09-23T20:26:55.721Z,29.50
2022-09-23T20:29:23.251Z,27.23
2022-09-23T20:31:50.678Z,27.63
2022-09-23T20:34:18.503Z,25.92
2022-09-23T20:36:45.508Z,26.25
2022-09-23T20:39:13.305Z,23.35
2022-09-23T20:41:40.551Z,22.15
2022-09-23T20:44:11.608Z,23.15
2022-09-23T20:46:38.910Z,29.20
2022-09-23T20:49:07.867Z,27.58
2022-09-23T20:51:38.139Z,24.05
2022-09-23T20:54:05.444Z,20.58
2022-09-23T20:56:33.603Z,22.15
2022-09-23T20:59:01.641Z,25.75
2022-09-23T21:01:29.335Z,23.70
2022-09-23T21:03:56.603Z,27.00
2022-09-23T21:06:27.158Z,23.23
2022-09-23T21:08:54.877Z,23.88
2022-09-23T21:11:22.640Z,21.05
2022-09-23T21:13:51.140Z,25.15
2022-09-23T21:16:19.687Z,29.58
2022-09-23T21:18:48.114Z,24.27
2022-09-23T21:21:17.594Z,25.40
2022-09-23T21:23:45.159Z,25.55
2022-09-23T21:26:14.047Z,30.65
2022-09-23T21:28:44.690Z,28.00
2022-09-23T21:31:13.124Z,25.95
2022-09-23T21:33:40.279Z,22.85
2022-09-23T21:36:08.009Z,23.48
2022-09-23T21:38:35.942Z,26.45
2022-09-23T21:41:04.129Z,26.45
2022-09-23T21:43:33.145Z,26.55
2022-09-23T21:46:02.296Z,26.50
2022-09-23T21:48:33.565Z,26.60
2022-09-23T21:51:08.599Z,28.60
2022-09-23T21:53:37.021Z,31.10
2022-09-23T21:56:06.038Z,28.30
2022-09-23T21:58:34.430Z,26.13
2022-09-23T22:01:02.373Z,25.17
2022-09-23T22:03:29.732Z,28.15
2022-09-23T22:06:06.224Z,29.65
2022-09-23T22:08:36.690Z,28.55
2022-09-23T22:11:08.365Z,31.50
2022-09-23T22:13:35.774Z,28.58
2022-09-23T22:16:05.199Z,30.95
2022-09-23T22:18:32.696Z,27.60
2022-09-23T22:21:00.202Z,29.35
2022-09-23T22:23:27.251Z,29.20
2022-09-23T22:26:02.275Z,34.00
2022-09-23T22:28:51.526Z,34.47
2022-09-23T22:31:37.800Z,29.52
2022-09-23T22:34:04.981Z,30.98
2022-09-23T22:36:32.084Z,31.83
2022-09-23T22:39:00.503Z,29.13
2022-09-23T22:41:27.581Z,33.15
2022-09-23T22:43:54.738Z,30.83
2022-09-23T22:46:25.160Z,31.25
2022-09-23T22:48:53.319Z,31.88
2022-09-23T22:51:22.176Z,32.72
2022-09-23T22:53:49.648Z,34.30
2022-09-23T22:56:16.678Z,32.53
2022-09-23T22:58:44.082Z,31.27
2022-09-23T23:01:11.746Z,32.33
2022-09-23T23:03:40.443Z,31.88
2022-09-23T23:06:08.273Z,33.75
2022-09-23T23:08:36.055Z,35.50
2022-09-23T23:11:10.026Z,40.45
2022-09-23T23:13:41.702Z,36.13
2022-09-23T23:16:13.234Z,33.17
2022-09-23T23:18:41.631Z,37.53
2022-09-23T23:21:15.979Z,35.55
2022-09-23T23:23:44.214Z,40.17
2022-09-23T23:26:13.136Z,35.88
2022-09-23T23:28:40.900Z,33.55
2022-09-23T23:31:09.058Z,32.58
2022-09-23T23:33:36.483Z,34.97
2022-09-23T23:36:03.889Z,36.35
2022-09-23T23:38:31.081Z,34.95
2022-09-23T23:41:02.010Z,32.55
2022-09-23T23:43:29.132Z,34.33
2022-09-23T23:45:57.053Z,34.03
2022-09-23T23:48:24.081Z,33.00
2022-09-23T23:50:54.609Z,32.70
2022-09-23T23:53:22.939Z,29.55
2022-09-23T23:55:50.357Z,32.53
2022-09-23T23:58:18.082Z,30.75
